Terminal Aerodrome Forecast
Issued by NWS

Home | Current Version | Previous Version | Text Only | Print | Product List | Glossary On
Versions: 1 2 3 4 5 6 7 8 9 10 11 12 13 14 15 16 17 18 19 20 21 22 23
000
FTAK31 PANC 210531
TAFADQ
TAF
PADQ 210531Z 2106/2206 03018G25KT 6SM -SHRA SCT003 OVC015
      TEMPO 2106/2108 3SM -SHRA BR
     FM211000 07011KT P6SM -SHRA SCT008 OVC020
     FM211800 09011KT P6SM VCSH SCT015 BKN025=

USA.gov is the U.S. government's official web portal to all federal, state and local government web resources and services.